createdAt,value
2017-11-28T00:02:28.107Z,80.50
2017-11-28T00:04:55.604Z,80.40
2017-11-28T00:07:23.132Z,80.40
2017-11-28T00:09:51.422Z,80.40
2017-11-28T00:12:18.955Z,80.00
2017-11-28T00:14:47.220Z,80.20
2017-11-28T00:17:14.743Z,80.40
2017-11-28T00:19:42.242Z,80.50
2017-11-28T00:22:09.741Z,80.00
2017-11-28T00:24:37.244Z,80.50
2017-11-28T00:27:04.773Z,80.40
2017-11-28T00:29:32.313Z,80.20
2017-11-28T00:31:59.839Z,80.30
2017-11-28T00:34:27.453Z,80.40
2017-11-28T00:36:54.974Z,80.80
2017-11-28T00:39:23.232Z,81.00
2017-11-28T00:41:50.734Z,81.10
2017-11-28T00:44:18.469Z,80.70
2017-11-28T00:46:46.848Z,81.50
2017-11-28T00:49:15.168Z,81.00
2017-11-28T00:51:42.708Z,80.10
2017-11-28T00:54:10.223Z,81.30
2017-11-28T00:56:37.740Z,80.70
2017-11-28T00:59:05.316Z,81.10
2017-11-28T01:01:32.833Z,81.70
2017-11-28T01:04:00.383Z,81.30
2017-11-28T01:06:28.674Z,81.20
2017-11-28T01:08:56.256Z,81.00
2017-11-28T01:11:23.780Z,80.60
2017-11-28T01:13:52.056Z,81.50
2017-11-28T01:16:20.344Z,81.60
2017-11-28T01:18:47.895Z,80.80
2017-11-28T01:21:16.219Z,82.00
2017-11-28T01:23:43.757Z,81.90
2017-11-28T01:26:11.282Z,80.90
2017-11-28T01:28:39.551Z,81.80
2017-11-28T01:31:07.104Z,81.80
2017-11-28T01:33:34.611Z,80.60
2017-11-28T01:36:02.128Z,81.90
2017-11-28T01:38:29.637Z,82.30
2017-11-28T01:40:57.194Z,82.20
2017-11-28T01:43:24.729Z,81.90
2017-11-28T01:45:52.319Z,82.50
2017-11-28T01:48:19.840Z,82.20
2017-11-28T01:50:48.155Z,82.70
2017-11-28T01:53:15.672Z,81.80
2017-11-28T01:55:43.965Z,82.60
2017-11-28T01:58:11.553Z,82.40
2017-11-28T02:00:39.140Z,82.20
2017-11-28T02:03:06.653Z,82.70
2017-11-28T02:05:34.176Z,82.30
2017-11-28T02:08:01.721Z,83.20
2017-11-28T02:10:29.244Z,83.80
2017-11-28T02:12:56.778Z,83.30
2017-11-28T02:15:25.060Z,83.60
2017-11-28T02:17:52.604Z,83.70
2017-11-28T02:20:20.881Z,83.40
2017-11-28T02:22:49.163Z,83.30
2017-11-28T02:25:17.457Z,83.00
2017-11-28T02:27:44.990Z,82.90
2017-11-28T02:30:13.313Z,83.40
2017-11-28T02:32:40.833Z,83.30
2017-11-28T02:35:09.123Z,83.80
2017-11-28T02:37:36.687Z,83.80
2017-11-28T02:40:04.236Z,83.10
2017-11-28T02:42:32.521Z,83.10
2017-11-28T02:45:00.056Z,82.30
2017-11-28T02:47:28.363Z,82.70
2017-11-28T02:50:07.778Z,82.70
2017-11-28T02:52:36.094Z,82.30
2017-11-28T02:55:09.052Z,82.10
2017-11-28T02:57:41.213Z,81.60
2017-11-28T03:00:09.492Z,81.00
2017-11-28T03:02:37.030Z,80.40
2017-11-28T03:05:04.557Z,80.00
2017-11-28T03:07:32.888Z,81.00
2017-11-28T03:10:09.007Z,80.60
2017-11-28T03:12:40.263Z,80.50
2017-11-28T03:15:15.306Z,80.80
2017-11-28T03:17:42.806Z,80.80
2017-11-28T03:20:14.279Z,80.80
2017-11-28T03:22:41.782Z,80.30
2017-11-28T03:25:30.187Z,79.60
2017-11-28T03:28:03.358Z,79.50
2017-11-28T03:30:57.464Z,79.30
2017-11-28T03:33:24.960Z,79.50
2017-11-28T03:35:52.445Z,80.00
2017-11-28T03:38:19.975Z,79.90
2017-11-28T03:40:47.459Z,80.00
2017-11-28T03:43:15.724Z,79.90
2017-11-28T03:45:44.903Z,80.30
2017-11-28T03:48:12.383Z,80.30
2017-11-28T03:50:40.652Z,80.50
2017-11-28T03:53:08.933Z,80.70
2017-11-28T03:55:37.187Z,80.90
2017-11-28T03:58:04.670Z,80.40
2017-11-28T04:00:32.959Z,80.40
2017-11-28T04:03:01.207Z,80.90
2017-11-28T04:05:28.718Z,81.00
2017-11-28T04:07:56.282Z,81.10
2017-11-28T04:10:23.765Z,80.80
2017-11-28T04:12:51.242Z,80.30
2017-11-28T04:15:18.742Z,80.30
2017-11-28T04:17:46.233Z,80.60
2017-11-28T04:20:13.727Z,80.50
2017-11-28T04:22:42.015Z,81.30
2017-11-28T04:25:10.267Z,80.80
2017-11-28T04:27:37.767Z,80.70
2017-11-28T04:30:05.291Z,80.60
2017-11-28T04:32:32.768Z,80.20
2017-11-28T04:35:01.023Z,80.00
2017-11-28T04:37:28.527Z,79.90
2017-11-28T04:39:56.014Z,80.10
2017-11-28T04:42:23.496Z,79.90
2017-11-28T04:44:51.034Z,79.70
2017-11-28T04:47:18.512Z,79.80
2017-11-28T04:49:46.012Z,80.40
2017-11-28T04:52:13.530Z,80.50
2017-11-28T04:54:41.022Z,80.70
2017-11-28T04:57:08.521Z,78.70
2017-11-28T04:59:36.027Z,79.00
2017-11-28T05:02:04.279Z,79.30
2017-11-28T05:04:31.763Z,79.30
2017-11-28T05:07:00.052Z,80.20
2017-11-28T05:09:27.557Z,80.00
2017-11-28T05:11:55.049Z,80.40
2017-11-28T05:14:23.331Z,80.80
2017-11-28T05:16:51.588Z,80.90
2017-11-28T05:19:19.082Z,80.60
2017-11-28T05:21:46.602Z,80.70
2017-11-28T05:24:14.114Z,80.60
2017-11-28T05:26:41.725Z,81.20
2017-11-28T05:29:09.275Z,80.50
2017-11-28T05:31:36.811Z,81.30
2017-11-28T05:34:04.315Z,80.90
2017-11-28T05:36:32.682Z,79.80
2017-11-28T05:39:00.261Z,79.20
2017-11-28T05:41:27.782Z,80.40
2017-11-28T05:43:55.309Z,79.30
2017-11-28T05:46:22.913Z,79.40
2017-11-28T05:48:50.415Z,79.40
2017-11-28T05:51:17.948Z,79.40
2017-11-28T05:53:46.224Z,80.20
2017-11-28T05:56:14.494Z,80.10
2017-11-28T05:58:42.007Z,80.00
2017-11-28T06:01:13.281Z,80.10
2017-11-28T06:03:40.783Z,80.20
2017-11-28T06:06:08.295Z,80.00
2017-11-28T06:08:35.809Z,79.40
2017-11-28T06:11:04.100Z,79.90
2017-11-28T06:13:31.616Z,80.00
2017-11-28T06:15:59.889Z,79.80
2017-11-28T06:18:28.151Z,79.90
2017-11-28T06:20:55.675Z,79.90
2017-11-28T06:23:23.179Z,79.30
2017-11-28T06:25:50.700Z,80.20
2017-11-28T06:28:18.264Z,79.70
2017-11-28T06:30:45.764Z,80.00
2017-11-28T06:33:14.040Z,79.70
2017-11-28T06:35:42.346Z,79.70
2017-11-28T06:38:09.855Z,79.60
2017-11-28T06:40:37.355Z,79.40
2017-11-28T06:43:04.905Z,79.40
2017-11-28T06:45:33.171Z,79.80
2017-11-28T06:48:01.702Z,79.80
2017-11-28T06:50:29.222Z,80.00
2017-11-28T06:52:57.478Z,80.00
2017-11-28T06:55:24.998Z,79.90
2017-11-28T06:57:52.507Z,80.20
2017-11-28T07:00:20.765Z,80.20
2017-11-28T07:02:48.262Z,80.30
2017-11-28T07:05:15.820Z,79.90
2017-11-28T07:07:43.369Z,79.90
2017-11-28T07:10:11.627Z,79.90
2017-11-28T07:12:39.159Z,79.70
2017-11-28T07:15:06.683Z,79.80
2017-11-28T07:17:34.191Z,79.30
2017-11-28T07:20:01.775Z,79.50
2017-11-28T07:22:30.054Z,79.50
2017-11-28T07:24:58.321Z,79.40
2017-11-28T07:27:26.620Z,79.10
2017-11-28T07:29:54.153Z,79.40
2017-11-28T07:32:21.718Z,79.20
2017-11-28T07:34:50.088Z,79.20
2017-11-28T07:37:17.592Z,79.20
2017-11-28T07:39:45.125Z,79.00
2017-11-28T07:42:12.710Z,79.10
2017-11-28T07:44:40.271Z,79.30
2017-11-28T07:47:07.856Z,78.50
2017-11-28T07:49:35.448Z,79.50
2017-11-28T07:52:03.002Z,79.20
2017-11-28T07:54:30.565Z,78.40
2017-11-28T07:56:58.131Z,78.60
2017-11-28T07:59:25.651Z,78.70
2017-11-28T08:01:53.186Z,78.20
2017-11-28T08:04:20.750Z,78.30
2017-11-28T08:06:48.278Z,78.60
2017-11-28T08:09:16.595Z,78.10
2017-11-28T08:11:44.193Z,77.90
2017-11-28T08:14:11.725Z,78.20
2017-11-28T08:16:39.251Z,77.70
2017-11-28T08:19:06.807Z,77.30
2017-11-28T08:21:34.377Z,76.70
2017-11-28T08:24:01.955Z,76.90
2017-11-28T08:26:29.501Z,76.30
2017-11-28T08:28:57.057Z,76.40
2017-11-28T08:31:24.564Z,75.80
2017-11-28T08:33:52.145Z,75.50
2017-11-28T08:36:20.467Z,74.90
2017-11-28T08:38:47.987Z,74.80
2017-11-28T08:41:16.315Z,68.80
2017-11-28T08:43:43.891Z,68.70
2017-11-28T08:46:11.410Z,63.10
2017-11-28T08:48:38.961Z,61.00
2017-11-28T08:51:07.304Z,60.10
2017-11-28T08:53:34.837Z,60.20
2017-11-28T08:56:02.465Z,59.50
2017-11-28T08:58:29.995Z,56.70
2017-11-28T09:00:58.310Z,53.30
2017-11-28T09:03:26.656Z,52.40
2017-11-28T09:05:54.243Z,51.70
2017-11-28T09:08:21.759Z,52.20
2017-11-28T09:10:49.283Z,52.00
2017-11-28T09:13:16.845Z,51.00
2017-11-28T09:15:44.356Z,50.80
2017-11-28T09:18:12.713Z,48.70
2017-11-28T09:20:40.235Z,49.20
2017-11-28T09:23:07.758Z,48.50
2017-11-28T09:25:36.075Z,48.50
2017-11-28T09:28:03.605Z,48.20
2017-11-28T09:30:31.146Z,50.50
2017-11-28T09:32:59.505Z,51.70
2017-11-28T09:35:27.068Z,51.80
2017-11-28T09:37:54.604Z,50.90
2017-11-28T09:40:22.156Z,51.50
2017-11-28T09:42:49.676Z,54.00
2017-11-28T09:45:17.955Z,55.50
2017-11-28T09:47:46.279Z,57.60
2017-11-28T09:50:13.818Z,57.00
2017-11-28T09:52:41.363Z,56.20
2017-11-28T09:55:08.944Z,56.60
2017-11-28T09:57:36.466Z,54.70
2017-11-28T10:00:04.832Z,55.40
2017-11-28T10:02:33.191Z,55.50
2017-11-28T10:05:00.699Z,55.10
2017-11-28T10:07:28.263Z,56.10
2017-11-28T10:09:55.881Z,55.90
2017-11-28T10:12:23.418Z,54.10
2017-11-28T10:14:50.932Z,52.60
2017-11-28T10:17:18.451Z,51.80
2017-11-28T10:19:45.958Z,49.80
2017-11-28T10:22:13.471Z,47.80
2017-11-28T10:24:41.050Z,49.90
2017-11-28T10:27:09.355Z,52.10
2017-11-28T10:29:36.930Z,51.60
2017-11-28T10:32:04.492Z,53.60
2017-11-28T10:34:32.034Z,55.80
2017-11-28T10:36:59.565Z,58.50
2017-11-28T10:39:27.884Z,55.00
2017-11-28T10:41:55.425Z,55.30
2017-11-28T10:44:22.962Z,55.50
2017-11-28T10:46:51.335Z,56.30
2017-11-28T10:49:19.648Z,56.70
2017-11-28T10:51:47.164Z,56.30
2017-11-28T10:54:15.531Z,59.30
2017-11-28T10:56:43.159Z,59.00
2017-11-28T10:59:10.712Z,60.80
2017-11-28T11:01:38.275Z,62.10
2017-11-28T11:04:06.011Z,62.00
2017-11-28T11:06:34.290Z,63.50
2017-11-28T11:09:01.836Z,63.00
2017-11-28T11:11:30.137Z,64.00
2017-11-28T11:13:58.028Z,63.90
2017-11-28T11:16:25.785Z,63.80
2017-11-28T11:18:53.346Z,63.10
2017-11-28T11:21:20.847Z,62.90
2017-11-28T11:23:49.287Z,62.10
2017-11-28T11:26:16.839Z,62.10
2017-11-28T11:28:44.359Z,62.50
2017-11-28T11:31:12.649Z,62.40
2017-11-28T11:33:40.944Z,61.80
2017-11-28T11:36:08.492Z,61.60
2017-11-28T11:38:36.083Z,60.30
2017-11-28T11:41:03.608Z,61.40
2017-11-28T11:43:31.176Z,59.80
2017-11-28T11:45:58.754Z,59.50
2017-11-28T11:48:26.293Z,60.40
2017-11-28T11:50:53.881Z,60.00
2017-11-28T11:53:21.442Z,60.00
2017-11-28T11:55:49.153Z,60.60
2017-11-28T11:58:17.486Z,60.20
2017-11-28T12:00:45.072Z,60.20
2017-11-28T12:03:12.623Z,59.50
2017-11-28T12:05:40.154Z,59.20
2017-11-28T12:08:07.707Z,59.20
2017-11-28T12:10:35.232Z,59.20
2017-11-28T12:13:03.527Z,59.30
2017-11-28T12:15:31.137Z,59.50
2017-11-28T12:17:58.670Z,59.90
2017-11-28T12:20:26.209Z,59.70
2017-11-28T12:22:53.735Z,58.60
2017-11-28T12:25:21.285Z,58.90
2017-11-28T12:27:48.839Z,59.60
2017-11-28T12:30:16.398Z,58.30
2017-11-28T12:32:43.925Z,58.00
2017-11-28T12:35:11.431Z,58.60
2017-11-28T12:37:39.777Z,54.60
2017-11-28T12:40:07.302Z,54.20
2017-11-28T12:42:34.868Z,51.60
2017-11-28T12:45:02.427Z,52.20
2017-11-28T12:47:29.960Z,53.40
2017-11-28T12:49:58.223Z,52.70
2017-11-28T12:52:25.759Z,52.40
2017-11-28T12:54:53.262Z,53.00
2017-11-28T12:57:21.540Z,50.60
2017-11-28T12:59:49.859Z,49.80
2017-11-28T13:02:17.370Z,48.80
2017-11-28T13:04:45.685Z,50.70
2017-11-28T13:07:13.288Z,51.50
2017-11-28T13:09:40.797Z,53.10
2017-11-28T13:12:08.365Z,54.00
2017-11-28T13:14:35.908Z,54.00
2017-11-28T13:17:03.424Z,54.30
2017-11-28T13:19:30.973Z,52.80
2017-11-28T13:21:58.495Z,51.50
2017-11-28T13:24:26.195Z,49.10
2017-11-28T13:26:53.767Z,49.90
2017-11-28T13:29:23.146Z,50.90
2017-11-28T13:31:50.815Z,51.50
2017-11-28T13:34:18.380Z,51.10
2017-11-28T13:36:46.019Z,51.60
2017-11-28T13:39:13.588Z,51.70
2017-11-28T13:41:41.124Z,49.10
2017-11-28T13:44:08.660Z,48.60
2017-11-28T13:46:36.927Z,44.40
2017-11-28T13:49:05.209Z,45.80
2017-11-28T13:51:33.563Z,46.60
2017-11-28T13:54:01.080Z,46.20
2017-11-28T13:56:28.641Z,46.80
2017-11-28T13:58:56.192Z,47.70
2017-11-28T14:01:23.732Z,48.40
2017-11-28T14:03:51.994Z,49.40
2017-11-28T14:06:20.322Z,49.30
2017-11-28T14:08:47.857Z,49.20
2017-11-28T14:11:15.360Z,49.90
2017-11-28T14:13:42.992Z,50.90
2017-11-28T14:16:10.507Z,52.30
2017-11-28T14:18:38.783Z,52.40
2017-11-28T14:21:21.963Z,53.50
2017-11-28T14:23:55.218Z,52.40
2017-11-28T14:26:28.297Z,53.20
2017-11-28T14:28:56.583Z,54.00
2017-11-28T14:31:30.663Z,55.30
2017-11-28T14:33:58.211Z,54.20
2017-11-28T14:39:32.179Z,53.80
2017-11-28T14:42:18.346Z,54.40
2017-11-28T14:48:08.236Z,54.00
2017-11-28T14:50:41.303Z,54.90
2017-11-28T14:53:08.859Z,54.20
2017-11-28T14:55:38.905Z,54.80
2017-11-28T15:01:16.970Z,54.50
2017-11-28T15:07:05.885Z,55.10
2017-11-28T15:09:52.278Z,55.20
2017-11-28T15:15:50.670Z,54.10
2017-11-28T15:18:36.926Z,55.00
2017-11-28T15:21:07.246Z,55.00
2017-11-28T15:23:40.487Z,55.30
2017-11-28T15:26:13.936Z,54.60
2017-11-28T15:28:41.454Z,54.60
2017-11-28T15:31:09.036Z,55.00
2017-11-28T15:33:36.579Z,54.90
2017-11-28T15:36:04.883Z,54.40
2017-11-28T15:38:32.371Z,54.80
2017-11-28T15:40:59.896Z,55.20
2017-11-28T15:43:27.412Z,55.30
2017-11-28T15:45:54.928Z,55.90
2017-11-28T15:48:22.479Z,55.70
2017-11-28T15:50:49.991Z,55.70
2017-11-28T15:53:17.589Z,56.50
2017-11-28T15:55:45.132Z,56.70
2017-11-28T15:58:12.730Z,56.60
2017-11-28T16:00:40.230Z,56.00
2017-11-28T16:03:07.817Z,56.00
2017-11-28T16:05:35.362Z,56.10
2017-11-28T16:08:02.929Z,55.60
2017-11-28T16:10:30.480Z,56.00
2017-11-28T16:12:58.064Z,56.20
2017-11-28T16:15:25.564Z,55.70
2017-11-28T16:17:53.885Z,56.10
2017-11-28T16:20:21.417Z,56.10
2017-11-28T16:22:49.742Z,56.50
2017-11-28T16:25:17.327Z,55.70
2017-11-28T16:27:44.854Z,58.20
2017-11-28T16:30:12.367Z,56.20
2017-11-28T16:32:40.672Z,56.70
2017-11-28T16:35:08.199Z,56.80
2017-11-28T16:37:36.729Z,56.80
2017-11-28T16:40:04.283Z,56.80
2017-11-28T16:42:31.838Z,57.10
2017-11-28T16:44:59.376Z,56.50
2017-11-28T16:47:26.921Z,56.40
2017-11-28T16:49:55.274Z,57.50
2017-11-28T16:52:22.796Z,57.50
2017-11-28T16:54:50.323Z,57.70
2017-11-28T16:57:18.639Z,57.80
2017-11-28T16:59:46.180Z,58.00
2017-11-28T17:02:13.759Z,58.40
2017-11-28T17:04:41.281Z,58.50
2017-11-28T17:07:08.858Z,58.50
2017-11-28T17:09:36.404Z,58.40
2017-11-28T17:12:03.976Z,58.00
2017-11-28T17:14:31.496Z,58.00
2017-11-28T17:16:59.075Z,58.10
2017-11-28T17:19:27.494Z,58.80
2017-11-28T17:21:55.044Z,58.60
2017-11-28T17:24:22.596Z,58.80
2017-11-28T17:26:50.154Z,59.10
2017-11-28T17:29:17.678Z,59.10
2017-11-28T17:31:45.277Z,58.90
2017-11-28T17:34:12.810Z,59.80
2017-11-28T17:36:41.132Z,60.00
2017-11-28T17:39:08.793Z,59.90
2017-11-28T17:41:36.335Z,59.00
2017-11-28T17:44:03.883Z,59.50
2017-11-28T17:46:32.206Z,60.10
2017-11-28T17:48:59.800Z,60.20
2017-11-28T17:51:28.110Z,59.80
2017-11-28T17:53:57.332Z,59.90
2017-11-28T17:56:25.868Z,60.20
2017-11-28T17:58:54.205Z,60.90
2017-11-28T18:01:21.791Z,60.80
2017-11-28T18:03:49.408Z,60.80
2017-11-28T18:06:16.961Z,61.10
2017-11-28T18:08:44.567Z,61.80
2017-11-28T18:11:12.072Z,60.70
2017-11-28T18:13:39.611Z,61.20
2017-11-28T18:16:07.984Z,61.90
2017-11-28T18:18:36.371Z,62.40
2017-11-28T18:21:04.918Z,62.90
2017-11-28T18:23:32.512Z,62.60
2017-11-28T18:26:00.857Z,62.90
2017-11-28T18:28:28.363Z,63.00
2017-11-28T18:30:55.906Z,62.50
2017-11-28T18:33:24.199Z,63.50
2017-11-28T18:35:51.729Z,63.50
2017-11-28T18:38:20.031Z,63.50
2017-11-28T18:40:48.357Z,63.80
2017-11-28T18:43:15.935Z,63.60
2017-11-28T18:45:43.491Z,63.90
2017-11-28T18:48:11.045Z,64.20
2017-11-28T18:50:38.598Z,64.00
2017-11-28T18:53:06.134Z,63.90
2017-11-28T18:55:33.700Z,64.00
2017-11-28T18:58:01.272Z,63.50
2017-11-28T19:00:28.831Z,64.10
2017-11-28T19:02:56.400Z,63.80
2017-11-28T19:05:23.961Z,64.40
2017-11-28T19:07:51.512Z,64.60
2017-11-28T19:10:19.019Z,64.40
2017-11-28T19:12:47.539Z,64.10
2017-11-28T19:15:15.104Z,64.10
2017-11-28T19:17:42.658Z,64.10
2017-11-28T19:20:10.467Z,64.50
2017-11-28T19:22:38.855Z,65.50
2017-11-28T19:25:06.967Z,64.90
2017-11-28T19:27:34.636Z,65.40
2017-11-28T19:30:02.274Z,65.50
2017-11-28T19:32:29.845Z,65.40
2017-11-28T19:34:58.396Z,65.30
2017-11-28T19:37:26.643Z,65.10
2017-11-28T19:39:54.231Z,65.40
2017-11-28T19:42:22.597Z,65.30
2017-11-28T19:44:50.474Z,65.30
2017-11-28T19:47:19.076Z,65.10
2017-11-28T19:49:47.748Z,65.20
2017-11-28T19:52:15.809Z,65.30
2017-11-28T19:54:45.444Z,64.80
2017-11-28T19:57:13.873Z,64.60
2017-11-28T19:59:41.559Z,64.60
2017-11-28T20:02:10.099Z,66.00
2017-11-28T20:04:37.874Z,65.80
2017-11-28T20:07:05.388Z,65.60
2017-11-28T20:09:33.718Z,67.00
2017-11-28T20:12:01.340Z,67.20
2017-11-28T20:14:28.953Z,67.60
2017-11-28T20:16:56.493Z,68.70
2017-11-28T20:19:24.670Z,69.80
2017-11-28T20:21:52.235Z,70.90
2017-11-28T20:24:19.795Z,70.90
2017-11-28T20:26:47.337Z,70.70
2017-11-28T20:29:14.894Z,72.40
2017-11-28T20:31:42.420Z,72.20
2017-11-28T20:34:10.738Z,72.00
2017-11-28T20:36:38.341Z,71.30
2017-11-28T20:39:06.675Z,72.00
2017-11-28T20:41:34.238Z,72.00
2017-11-28T20:44:01.814Z,73.00
2017-11-28T20:46:29.371Z,72.50
2017-11-28T20:49:02.515Z,72.30
2017-11-28T20:51:30.027Z,72.30
2017-11-28T20:53:57.590Z,72.30
2017-11-28T20:56:25.118Z,72.50
2017-11-28T20:58:52.686Z,72.50
2017-11-28T21:01:20.189Z,73.10
2017-11-28T21:03:48.488Z,72.60
2017-11-28T21:06:16.037Z,72.00
2017-11-28T21:08:43.740Z,71.50
2017-11-28T21:11:11.445Z,71.50
2017-11-28T21:13:39.196Z,72.10
2017-11-28T21:16:07.057Z,72.00
2017-11-28T21:18:34.667Z,72.50
2017-11-28T21:21:02.244Z,72.70
2017-11-28T21:23:29.741Z,72.60
2017-11-28T21:25:57.283Z,72.70
2017-11-28T21:28:24.791Z,72.90
2017-11-28T21:30:53.063Z,72.90
2017-11-28T21:33:21.433Z,73.20
2017-11-28T21:35:49.740Z,73.10
2017-11-28T21:38:17.402Z,73.10
2017-11-28T21:40:44.979Z,73.10
2017-11-28T21:43:12.535Z,72.50
2017-11-28T21:45:40.101Z,72.60
2017-11-28T21:48:07.697Z,73.80
2017-11-28T21:50:35.312Z,73.80
2017-11-28T21:53:02.882Z,74.10
2017-11-28T21:55:30.459Z,74.40
2017-11-28T21:57:57.998Z,74.50
2017-11-28T22:00:25.520Z,75.20
2017-11-28T22:02:53.080Z,75.90
2017-11-28T22:05:21.414Z,76.00
2017-11-28T22:07:49.010Z,75.90
2017-11-28T22:10:17.349Z,76.20
2017-11-28T22:12:44.871Z,76.30
2017-11-28T22:15:13.147Z,76.80
2017-11-28T22:17:40.708Z,76.80
2017-11-28T22:20:08.201Z,76.90
2017-11-28T22:22:35.756Z,76.60
2017-11-28T22:25:03.310Z,76.20
2017-11-28T22:27:30.853Z,77.00
2017-11-28T22:29:58.366Z,76.30
2017-11-28T22:32:25.903Z,77.20
2017-11-28T22:34:53.431Z,77.70
2017-11-28T22:37:20.970Z,77.00
2017-11-28T22:39:49.263Z,79.10
2017-11-28T22:42:16.847Z,79.00
2017-11-28T22:44:44.371Z,79.50
2017-11-28T22:47:12.674Z,80.60
2017-11-28T22:49:40.162Z,80.20
2017-11-28T22:52:07.662Z,81.00
2017-11-28T22:54:35.948Z,81.00
2017-11-28T22:57:03.441Z,81.00
2017-11-28T22:59:30.990Z,80.00
2017-11-28T23:01:58.508Z,79.40
2017-11-28T23:04:26.770Z,79.70
2017-11-28T23:06:54.246Z,79.60
2017-11-28T23:09:22.517Z,80.90
2017-11-28T23:11:50.766Z,80.60
2017-11-28T23:14:29.977Z,80.30
2017-11-28T23:16:57.458Z,79.00
2017-11-28T23:19:24.952Z,80.30
2017-11-28T23:21:53.247Z,79.10
2017-11-28T23:24:20.730Z,79.00
2017-11-28T23:26:48.216Z,79.80
2017-11-28T23:29:15.764Z,79.50
2017-11-28T23:31:43.330Z,79.70
2017-11-28T23:34:10.819Z,80.20
2017-11-28T23:36:39.203Z,79.60
2017-11-28T23:39:07.458Z,79.70
2017-11-28T23:41:34.973Z,79.50
2017-11-28T23:44:02.491Z,79.30
2017-11-28T23:46:30.800Z,80.40
2017-11-28T23:48:58.286Z,81.00
2017-11-28T23:51:25.802Z,80.20
2017-11-28T23:53:53.279Z,79.90
2017-11-28T23:56:20.771Z,79.90
2017-11-28T23:58:48.287Z,79.50
